sensor_id;sensor_type;location;lat;lon;timestamp;P1;durP1;ratioP1;P2;durP2;ratioP2
6135;SDS011;24008;42.664;23.372;2023-04-03T00:01:34;12.57;;;7.23;;
6135;SDS011;24008;42.664;23.372;2023-04-03T00:04:03;8.17;;;5.83;;
6135;SDS011;24008;42.664;23.372;2023-04-03T00:06:30;9.93;;;6.23;;
6135;SDS011;24008;42.664;23.372;2023-04-03T00:08:57;10.70;;;6.30;;
6135;SDS011;24008;42.664;23.372;2023-04-03T00:11:26;10.17;;;6.93;;
6135;SDS011;24008;42.664;23.372;2023-04-03T00:13:53;8.57;;;5.90;;
6135;SDS011;24008;42.664;23.372;2023-04-03T00:16:20;7.60;;;5.90;;
6135;SDS011;24008;42.664;23.372;2023-04-03T00:18:47;6.53;;;4.80;;
6135;SDS011;24008;42.664;23.372;2023-04-03T00:21:13;6.97;;;5.30;;
6135;SDS011;24008;42.664;23.372;2023-04-03T00:23:40;6.60;;;5.10;;
6135;SDS011;24008;42.664;23.372;2023-04-03T00:26:07;7.47;;;4.97;;
6135;SDS011;24008;42.664;23.372;2023-04-03T00:28:35;7.63;;;4.80;;
6135;SDS011;24008;42.664;23.372;2023-04-03T00:31:02;6.97;;;5.07;;
6135;SDS011;24008;42.664;23.372;2023-04-03T00:33:29;7.00;;;5.13;;
6135;SDS011;24008;42.664;23.372;2023-04-03T00:35:56;6.90;;;5.03;;
6135;SDS011;24008;42.664;23.372;2023-04-03T00:38:22;7.57;;;5.47;;
6135;SDS011;24008;42.664;23.372;2023-04-03T00:40:49;8.97;;;5.67;;
6135;SDS011;24008;42.664;23.372;2023-04-03T00:43:17;9.60;;;5.23;;
6135;SDS011;24008;42.664;23.372;2023-04-03T00:45:47;8.37;;;5.67;;
6135;SDS011;24008;42.664;23.372;2023-04-03T00:48:15;8.63;;;5.83;;
6135;SDS011;24008;42.664;23.372;2023-04-03T00:50:46;12.00;;;5.87;;
6135;SDS011;24008;42.664;23.372;2023-04-03T00:53:14;7.23;;;5.97;;
6135;SDS011;24008;42.664;23.372;2023-04-03T00:55:43;10.10;;;5.97;;
6135;SDS011;24008;42.664;23.372;2023-04-03T00:58:12;8.27;;;5.53;;
6135;SDS011;24008;42.664;23.372;2023-04-03T01:00:42;6.93;;;4.90;;
6135;SDS011;24008;42.664;23.372;2023-04-03T01:03:14;7.70;;;5.20;;
6135;SDS011;24008;42.664;23.372;2023-04-03T01:05:40;6.50;;;5.10;;
6135;SDS011;24008;42.664;23.372;2023-04-03T01:08:07;8.37;;;5.27;;
6135;SDS011;24008;42.664;23.372;2023-04-03T01:10:34;6.53;;;4.93;;
6135;SDS011;24008;42.664;23.372;2023-04-03T01:13:01;8.80;;;5.13;;
6135;SDS011;24008;42.664;23.372;2023-04-03T01:15:43;8.10;;;5.50;;
6135;SDS011;24008;42.664;23.372;2023-04-03T01:18:09;9.90;;;5.57;;
6135;SDS011;24008;42.664;23.372;2023-04-03T01:20:42;6.37;;;4.83;;
6135;SDS011;24008;42.664;23.372;2023-04-03T01:23:41;6.87;;;5.47;;
6135;SDS011;24008;42.664;23.372;2023-04-03T01:26:17;6.27;;;5.43;;
6135;SDS011;24008;42.664;23.372;2023-04-03T01:28:44;7.83;;;5.40;;
6135;SDS011;24008;42.664;23.372;2023-04-03T01:31:13;6.70;;;5.37;;
6135;SDS011;24008;42.664;23.372;2023-04-03T01:33:46;6.90;;;5.00;;
6135;SDS011;24008;42.664;23.372;2023-04-03T01:36:16;7.23;;;4.70;;
6135;SDS011;24008;42.664;23.372;2023-04-03T01:38:44;7.00;;;5.80;;
6135;SDS011;24008;42.664;23.372;2023-04-03T01:41:11;6.70;;;5.53;;
6135;SDS011;24008;42.664;23.372;2023-04-03T01:43:38;6.50;;;5.03;;
6135;SDS011;24008;42.664;23.372;2023-04-03T01:46:05;7.67;;;5.00;;
6135;SDS011;24008;42.664;23.372;2023-04-03T01:48:32;18.77;;;12.60;;
6135;SDS011;24008;42.664;23.372;2023-04-03T01:51:00;22.07;;;15.00;;
6135;SDS011;24008;42.664;23.372;2023-04-03T01:53:27;29.90;;;17.53;;
6135;SDS011;24008;42.664;23.372;2023-04-03T01:55:53;25.40;;;16.63;;
6135;SDS011;24008;42.664;23.372;2023-04-03T01:58:20;26.90;;;15.93;;
6135;SDS011;24008;42.664;23.372;2023-04-03T02:00:47;23.77;;;14.07;;
6135;SDS011;24008;42.664;23.372;2023-04-03T02:03:14;18.67;;;11.43;;
6135;SDS011;24008;42.664;23.372;2023-04-03T02:05:41;17.93;;;10.90;;
6135;SDS011;24008;42.664;23.372;2023-04-03T02:08:09;19.77;;;11.90;;
6135;SDS011;24008;42.664;23.372;2023-04-03T02:10:35;15.83;;;9.77;;
6135;SDS011;24008;42.664;23.372;2023-04-03T02:13:02;15.47;;;10.53;;
6135;SDS011;24008;42.664;23.372;2023-04-03T02:15:29;15.30;;;11.00;;
6135;SDS011;24008;42.664;23.372;2023-04-03T02:17:56;17.20;;;10.87;;
6135;SDS011;24008;42.664;23.372;2023-04-03T02:20:22;18.10;;;10.40;;
6135;SDS011;24008;42.664;23.372;2023-04-03T02:22:49;14.07;;;8.83;;
6135;SDS011;24008;42.664;23.372;2023-04-03T02:25:17;11.83;;;8.20;;
6135;SDS011;24008;42.664;23.372;2023-04-03T02:27:45;11.77;;;8.80;;
6135;SDS011;24008;42.664;23.372;2023-04-03T02:30:12;17.07;;;9.47;;
6135;SDS011;24008;42.664;23.372;2023-04-03T02:32:39;14.20;;;9.57;;
6135;SDS011;24008;42.664;23.372;2023-04-03T02:35:07;12.13;;;8.70;;
6135;SDS011;24008;42.664;23.372;2023-04-03T02:37:35;16.77;;;10.47;;
6135;SDS011;24008;42.664;23.372;2023-04-03T02:40:02;15.27;;;9.53;;
6135;SDS011;24008;42.664;23.372;2023-04-03T02:42:31;13.57;;;9.20;;
6135;SDS011;24008;42.664;23.372;2023-04-03T02:44:58;9.93;;;5.90;;
6135;SDS011;24008;42.664;23.372;2023-04-03T02:47:25;7.13;;;5.47;;
6135;SDS011;24008;42.664;23.372;2023-04-03T02:49:52;12.33;;;7.70;;
6135;SDS011;24008;42.664;23.372;2023-04-03T02:52:19;10.20;;;7.23;;
6135;SDS011;24008;42.664;23.372;2023-04-03T02:54:46;13.00;;;7.17;;
6135;SDS011;24008;42.664;23.372;2023-04-03T02:57:13;13.53;;;7.73;;
6135;SDS011;24008;42.664;23.372;2023-04-03T02:59:41;11.57;;;7.53;;
6135;SDS011;24008;42.664;23.372;2023-04-03T03:02:09;10.10;;;6.93;;
6135;SDS011;24008;42.664;23.372;2023-04-03T03:04:36;10.30;;;6.90;;
6135;SDS011;24008;42.664;23.372;2023-04-03T03:07:03;11.50;;;7.23;;
6135;SDS011;24008;42.664;23.372;2023-04-03T03:09:30;8.87;;;6.50;;
6135;SDS011;24008;42.664;23.372;2023-04-03T03:11:57;10.10;;;6.50;;
6135;SDS011;24008;42.664;23.372;2023-04-03T03:14:24;9.37;;;6.43;;
6135;SDS011;24008;42.664;23.372;2023-04-03T03:16:52;8.17;;;6.10;;
6135;SDS011;24008;42.664;23.372;2023-04-03T03:19:19;8.17;;;5.87;;
6135;SDS011;24008;42.664;23.372;2023-04-03T03:21:45;10.40;;;6.03;;
6135;SDS011;24008;42.664;23.372;2023-04-03T03:24:12;9.97;;;5.70;;
6135;SDS011;24008;42.664;23.372;2023-04-03T03:26:40;9.53;;;6.50;;
6135;SDS011;24008;42.664;23.372;2023-04-03T03:29:07;8.20;;;5.43;;
6135;SDS011;24008;42.664;23.372;2023-04-03T03:31:34;11.03;;;6.57;;
6135;SDS011;24008;42.664;23.372;2023-04-03T03:34:03;23.10;;;12.50;;
6135;SDS011;24008;42.664;23.372;2023-04-03T03:36:29;13.47;;;8.23;;
6135;SDS011;24008;42.664;23.372;2023-04-03T03:38:56;25.37;;;17.43;;
6135;SDS011;24008;42.664;23.372;2023-04-03T03:41:23;21.20;;;11.37;;
6135;SDS011;24008;42.664;23.372;2023-04-03T03:43:50;9.43;;;6.63;;
6135;SDS011;24008;42.664;23.372;2023-04-03T03:46:17;15.33;;;6.63;;
6135;SDS011;24008;42.664;23.372;2023-04-03T03:48:43;13.40;;;6.77;;
6135;SDS011;24008;42.664;23.372;2023-04-03T03:51:11;17.17;;;7.10;;
6135;SDS011;24008;42.664;23.372;2023-04-03T03:53:38;18.07;;;7.73;;
6135;SDS011;24008;42.664;23.372;2023-04-03T03:56:05;12.63;;;7.40;;
6135;SDS011;24008;42.664;23.372;2023-04-03T03:58:32;12.80;;;6.57;;
6135;SDS011;24008;42.664;23.372;2023-04-03T04:01:00;15.07;;;7.30;;
6135;SDS011;24008;42.664;23.372;2023-04-03T04:03:27;11.30;;;6.87;;
6135;SDS011;24008;42.664;23.372;2023-04-03T04:05:54;9.07;;;6.77;;
6135;SDS011;24008;42.664;23.372;2023-04-03T04:08:22;14.93;;;7.30;;
6135;SDS011;24008;42.664;23.372;2023-04-03T04:10:49;14.17;;;8.20;;
6135;SDS011;24008;42.664;23.372;2023-04-03T04:13:17;12.77;;;6.47;;
6135;SDS011;24008;42.664;23.372;2023-04-03T04:15:44;12.90;;;6.87;;
6135;SDS011;24008;42.664;23.372;2023-04-03T04:18:10;19.77;;;7.20;;
6135;SDS011;24008;42.664;23.372;2023-04-03T04:20:37;21.00;;;7.87;;
6135;SDS011;24008;42.664;23.372;2023-04-03T04:23:04;16.23;;;7.60;;
6135;SDS011;24008;42.664;23.372;2023-04-03T04:25:32;9.33;;;6.40;;
6135;SDS011;24008;42.664;23.372;2023-04-03T04:27:59;13.77;;;7.00;;
6135;SDS011;24008;42.664;23.372;2023-04-03T04:30:26;10.40;;;6.50;;
6135;SDS011;24008;42.664;23.372;2023-04-03T04:32:53;8.60;;;5.80;;
6135;SDS011;24008;42.664;23.372;2023-04-03T04:35:19;10.27;;;6.40;;
6135;SDS011;24008;42.664;23.372;2023-04-03T04:37:46;9.07;;;6.50;;
6135;SDS011;24008;42.664;23.372;2023-04-03T04:40:13;10.53;;;6.87;;
6135;SDS011;24008;42.664;23.372;2023-04-03T04:42:41;13.07;;;6.77;;
6135;SDS011;24008;42.664;23.372;2023-04-03T04:45:08;14.37;;;7.10;;
6135;SDS011;24008;42.664;23.372;2023-04-03T04:47:35;12.33;;;7.00;;
6135;SDS011;24008;42.664;23.372;2023-04-03T04:50:02;10.37;;;6.63;;
6135;SDS011;24008;42.664;23.372;2023-04-03T04:52:30;17.73;;;7.53;;
6135;SDS011;24008;42.664;23.372;2023-04-03T04:54:57;11.00;;;6.53;;
6135;SDS011;24008;42.664;23.372;2023-04-03T04:57:24;15.33;;;7.20;;
6135;SDS011;24008;42.664;23.372;2023-04-03T04:59:52;13.70;;;7.03;;
6135;SDS011;24008;42.664;23.372;2023-04-03T05:02:19;12.10;;;7.17;;
6135;SDS011;24008;42.664;23.372;2023-04-03T05:04:46;13.47;;;7.53;;
6135;SDS011;24008;42.664;23.372;2023-04-03T05:07:15;12.97;;;7.60;;
6135;SDS011;24008;42.664;23.372;2023-04-03T05:09:41;10.70;;;7.43;;
6135;SDS011;24008;42.664;23.372;2023-04-03T05:12:08;9.93;;;6.83;;
6135;SDS011;24008;42.664;23.372;2023-04-03T05:14:35;14.90;;;7.40;;
6135;SDS011;24008;42.664;23.372;2023-04-03T05:17:03;15.27;;;7.47;;
6135;SDS011;24008;42.664;23.372;2023-04-03T05:19:30;23.27;;;8.40;;
6135;SDS011;24008;42.664;23.372;2023-04-03T05:21:57;13.93;;;8.17;;
6135;SDS011;24008;42.664;23.372;2023-04-03T05:24:23;12.83;;;7.63;;
6135;SDS011;24008;42.664;23.372;2023-04-03T05:26:51;13.07;;;7.37;;
6135;SDS011;24008;42.664;23.372;2023-04-03T05:29:18;14.13;;;7.53;;
6135;SDS011;24008;42.664;23.372;2023-04-03T05:31:44;21.23;;;10.30;;
6135;SDS011;24008;42.664;23.372;2023-04-03T05:34:12;30.80;;;8.97;;
6135;SDS011;24008;42.664;23.372;2023-04-03T05:36:39;15.30;;;8.30;;
6135;SDS011;24008;42.664;23.372;2023-04-03T05:39:07;13.07;;;8.00;;
6135;SDS011;24008;42.664;23.372;2023-04-03T05:41:34;14.97;;;8.93;;
6135;SDS011;24008;42.664;23.372;2023-04-03T05:44:00;16.80;;;9.13;;
6135;SDS011;24008;42.664;23.372;2023-04-03T05:46:27;18.07;;;8.87;;
6135;SDS011;24008;42.664;23.372;2023-04-03T05:48:54;21.77;;;9.63;;
6135;SDS011;24008;42.664;23.372;2023-04-03T05:51:23;18.47;;;9.47;;
6135;SDS011;24008;42.664;23.372;2023-04-03T05:53:52;18.33;;;10.40;;
6135;SDS011;24008;42.664;23.372;2023-04-03T05:56:27;15.23;;;8.97;;
6135;SDS011;24008;42.664;23.372;2023-04-03T05:58:54;17.97;;;10.53;;
6135;SDS011;24008;42.664;23.372;2023-04-03T06:01:20;18.77;;;11.00;;
6135;SDS011;24008;42.664;23.372;2023-04-03T06:03:48;20.50;;;11.60;;
6135;SDS011;24008;42.664;23.372;2023-04-03T06:06:15;18.53;;;11.73;;
6135;SDS011;24008;42.664;23.372;2023-04-03T06:08:43;23.20;;;12.33;;
6135;SDS011;24008;42.664;23.372;2023-04-03T06:11:11;27.93;;;12.70;;
6135;SDS011;24008;42.664;23.372;2023-04-03T06:13:38;28.83;;;13.37;;
6135;SDS011;24008;42.664;23.372;2023-04-03T06:16:05;26.63;;;15.00;;
6135;SDS011;24008;42.664;23.372;2023-04-03T06:18:32;33.80;;;15.67;;
6135;SDS011;24008;42.664;23.372;2023-04-03T06:20:58;40.63;;;21.63;;
6135;SDS011;24008;42.664;23.372;2023-04-03T06:23:26;47.87;;;25.03;;
6135;SDS011;24008;42.664;23.372;2023-04-03T06:25:57;52.60;;;26.40;;
6135;SDS011;24008;42.664;23.372;2023-04-03T06:28:24;55.17;;;32.33;;
6135;SDS011;24008;42.664;23.372;2023-04-03T06:30:51;58.70;;;33.97;;
6135;SDS011;24008;42.664;23.372;2023-04-03T06:33:18;56.90;;;35.53;;
6135;SDS011;24008;42.664;23.372;2023-04-03T06:35:45;91.70;;;53.87;;
6135;SDS011;24008;42.664;23.372;2023-04-03T06:38:11;89.53;;;54.83;;
6135;SDS011;24008;42.664;23.372;2023-04-03T06:40:38;71.03;;;46.23;;
6135;SDS011;24008;42.664;23.372;2023-04-03T06:43:06;90.67;;;53.40;;
6135;SDS011;24008;42.664;23.372;2023-04-03T06:45:33;76.17;;;49.70;;
6135;SDS011;24008;42.664;23.372;2023-04-03T06:48:01;60.83;;;44.13;;
6135;SDS011;24008;42.664;23.372;2023-04-03T06:50:28;58.67;;;38.20;;
6135;SDS011;24008;42.664;23.372;2023-04-03T06:52:54;55.03;;;36.83;;
6135;SDS011;24008;42.664;23.372;2023-04-03T06:55:21;51.77;;;34.03;;
6135;SDS011;24008;42.664;23.372;2023-04-03T06:57:48;50.33;;;31.70;;
6135;SDS011;24008;42.664;23.372;2023-04-03T07:00:17;43.77;;;29.33;;
6135;SDS011;24008;42.664;23.372;2023-04-03T07:02:45;45.57;;;29.57;;
6135;SDS011;24008;42.664;23.372;2023-04-03T07:05:12;43.10;;;27.60;;
6135;SDS011;24008;42.664;23.372;2023-04-03T07:07:39;46.10;;;29.00;;
6135;SDS011;24008;42.664;23.372;2023-04-03T07:10:06;48.57;;;29.53;;
6135;SDS011;24008;42.664;23.372;2023-04-03T07:12:34;51.60;;;29.30;;
6135;SDS011;24008;42.664;23.372;2023-04-03T07:15:01;47.03;;;28.87;;
6135;SDS011;24008;42.664;23.372;2023-04-03T07:17:29;49.20;;;27.63;;
6135;SDS011;24008;42.664;23.372;2023-04-03T07:19:56;44.47;;;27.40;;
6135;SDS011;24008;42.664;23.372;2023-04-03T07:22:23;40.93;;;26.33;;
6135;SDS011;24008;42.664;23.372;2023-04-03T07:24:50;42.97;;;25.10;;
6135;SDS011;24008;42.664;23.372;2023-04-03T07:27:16;38.80;;;25.77;;
6135;SDS011;24008;42.664;23.372;2023-04-03T07:29:43;57.13;;;27.10;;
6135;SDS011;24008;42.664;23.372;2023-04-03T07:32:11;45.00;;;28.07;;
6135;SDS011;24008;42.664;23.372;2023-04-03T07:34:44;52.73;;;29.20;;
6135;SDS011;24008;42.664;23.372;2023-04-03T07:37:10;43.70;;;28.13;;
6135;SDS011;24008;42.664;23.372;2023-04-03T07:39:37;50.67;;;28.37;;
6135;SDS011;24008;42.664;23.372;2023-04-03T07:42:04;42.27;;;24.63;;
6135;SDS011;24008;42.664;23.372;2023-04-03T07:44:32;39.77;;;24.67;;
6135;SDS011;24008;42.664;23.372;2023-04-03T07:46:59;44.33;;;25.37;;
6135;SDS011;24008;42.664;23.372;2023-04-03T07:49:25;36.93;;;22.27;;
6135;SDS011;24008;42.664;23.372;2023-04-03T07:51:54;34.93;;;23.00;;
6135;SDS011;24008;42.664;23.372;2023-04-03T07:54:20;43.43;;;23.57;;
6135;SDS011;24008;42.664;23.372;2023-04-03T07:56:48;42.40;;;23.37;;
6135;SDS011;24008;42.664;23.372;2023-04-03T07:59:15;47.03;;;28.50;;
6135;SDS011;24008;42.664;23.372;2023-04-03T08:01:41;43.73;;;27.57;;
6135;SDS011;24008;42.664;23.372;2023-04-03T08:04:08;42.00;;;27.63;;
6135;SDS011;24008;42.664;23.372;2023-04-03T08:06:38;45.27;;;28.27;;
6135;SDS011;24008;42.664;23.372;2023-04-03T08:09:06;43.83;;;28.27;;
6135;SDS011;24008;42.664;23.372;2023-04-03T08:11:33;41.03;;;27.73;;
6135;SDS011;24008;42.664;23.372;2023-04-03T08:14:01;44.67;;;26.77;;
6135;SDS011;24008;42.664;23.372;2023-04-03T08:16:28;39.70;;;26.10;;
6135;SDS011;24008;42.664;23.372;2023-04-03T08:18:55;35.47;;;23.87;;
6135;SDS011;24008;42.664;23.372;2023-04-03T08:21:22;39.83;;;23.27;;
6135;SDS011;24008;42.664;23.372;2023-04-03T08:23:49;36.90;;;23.50;;
6135;SDS011;24008;42.664;23.372;2023-04-03T08:26:20;33.90;;;23.90;;
6135;SDS011;24008;42.664;23.372;2023-04-03T08:28:48;41.20;;;22.83;;
6135;SDS011;24008;42.664;23.372;2023-04-03T08:31:15;33.73;;;22.20;;
6135;SDS011;24008;42.664;23.372;2023-04-03T08:33:45;37.13;;;22.33;;
6135;SDS011;24008;42.664;23.372;2023-04-03T08:36:16;30.17;;;21.83;;
6135;SDS011;24008;42.664;23.372;2023-04-03T08:38:45;34.40;;;21.97;;
6135;SDS011;24008;42.664;23.372;2023-04-03T08:41:14;42.93;;;23.30;;
6135;SDS011;24008;42.664;23.372;2023-04-03T08:43:55;41.53;;;22.17;;
6135;SDS011;24008;42.664;23.372;2023-04-03T08:46:31;40.83;;;22.37;;
6135;SDS011;24008;42.664;23.372;2023-04-03T08:49:07;31.70;;;20.83;;
6135;SDS011;24008;42.664;23.372;2023-04-03T08:51:43;28.20;;;20.87;;
6135;SDS011;24008;42.664;23.372;2023-04-03T08:54:19;35.77;;;20.77;;
6135;SDS011;24008;42.664;23.372;2023-04-03T08:56:52;34.30;;;21.00;;
6135;SDS011;24008;42.664;23.372;2023-04-03T08:59:22;38.50;;;22.57;;
6135;SDS011;24008;42.664;23.372;2023-04-03T09:01:54;37.10;;;20.57;;
6135;SDS011;24008;42.664;23.372;2023-04-03T09:04:24;37.23;;;21.93;;
6135;SDS011;24008;42.664;23.372;2023-04-03T09:06:54;35.20;;;22.07;;
6135;SDS011;24008;42.664;23.372;2023-04-03T09:09:27;38.70;;;21.30;;
6135;SDS011;24008;42.664;23.372;2023-04-03T09:12:00;29.60;;;19.53;;
6135;SDS011;24008;42.664;23.372;2023-04-03T09:14:38;34.93;;;19.30;;
6135;SDS011;24008;42.664;23.372;2023-04-03T09:17:09;37.20;;;18.33;;
6135;SDS011;24008;42.664;23.372;2023-04-03T09:19:43;23.73;;;16.20;;
6135;SDS011;24008;42.664;23.372;2023-04-03T09:22:18;35.27;;;18.43;;
6135;SDS011;24008;42.664;23.372;2023-04-03T09:24:50;24.33;;;17.10;;
6135;SDS011;24008;42.664;23.372;2023-04-03T09:27:23;32.50;;;17.47;;
6135;SDS011;24008;42.664;23.372;2023-04-03T09:29:52;35.53;;;18.23;;
6135;SDS011;24008;42.664;23.372;2023-04-03T09:32:21;22.73;;;17.77;;
6135;SDS011;24008;42.664;23.372;2023-04-03T09:34:56;38.40;;;18.83;;
6135;SDS011;24008;42.664;23.372;2023-04-03T09:37:36;34.10;;;19.20;;
6135;SDS011;24008;42.664;23.372;2023-04-03T09:40:11;29.87;;;17.50;;
6135;SDS011;24008;42.664;23.372;2023-04-03T09:43:00;32.00;;;17.50;;
6135;SDS011;24008;42.664;23.372;2023-04-03T09:45:29;34.30;;;18.33;;
6135;SDS011;24008;42.664;23.372;2023-04-03T09:48:07;30.27;;;17.37;;
6135;SDS011;24008;42.664;23.372;2023-04-03T09:50:41;30.43;;;17.93;;
6135;SDS011;24008;42.664;23.372;2023-04-03T09:53:27;27.53;;;17.50;;
6135;SDS011;24008;42.664;23.372;2023-04-03T09:55:55;26.87;;;16.93;;
6135;SDS011;24008;42.664;23.372;2023-04-03T09:58:24;30.30;;;14.90;;
6135;SDS011;24008;42.664;23.372;2023-04-03T10:00:56;23.93;;;13.67;;
6135;SDS011;24008;42.664;23.372;2023-04-03T10:03:25;21.37;;;11.90;;
6135;SDS011;24008;42.664;23.372;2023-04-03T10:05:54;18.63;;;12.33;;
6135;SDS011;24008;42.664;23.372;2023-04-03T10:08:24;14.07;;;10.23;;
6135;SDS011;24008;42.664;23.372;2023-04-03T10:11:12;17.63;;;11.00;;
6135;SDS011;24008;42.664;23.372;2023-04-03T10:13:54;19.70;;;10.93;;
6135;SDS011;24008;42.664;23.372;2023-04-03T10:16:27;17.03;;;10.40;;
6135;SDS011;24008;42.664;23.372;2023-04-03T10:19:03;17.43;;;10.03;;
6135;SDS011;24008;42.664;23.372;2023-04-03T10:21:40;16.80;;;10.93;;
6135;SDS011;24008;42.664;23.372;2023-04-03T10:24:14;19.53;;;10.90;;
6135;SDS011;24008;42.664;23.372;2023-04-03T10:26:50;16.77;;;9.97;;
6135;SDS011;24008;42.664;23.372;2023-04-03T10:32:21;12.90;;;8.73;;
6135;SDS011;24008;42.664;23.372;2023-04-03T10:34:59;17.50;;;8.33;;
6135;SDS011;24008;42.664;23.372;2023-04-03T10:37:35;19.93;;;7.73;;
6135;SDS011;24008;42.664;23.372;2023-04-03T10:40:16;10.67;;;7.97;;
6135;SDS011;24008;42.664;23.372;2023-04-03T10:42:52;15.70;;;9.57;;
6135;SDS011;24008;42.664;23.372;2023-04-03T10:45:26;11.53;;;7.03;;
6135;SDS011;24008;42.664;23.372;2023-04-03T10:48:02;14.37;;;6.97;;
6135;SDS011;24008;42.664;23.372;2023-04-03T10:50:38;18.63;;;7.77;;
6135;SDS011;24008;42.664;23.372;2023-04-03T10:53:13;10.27;;;7.27;;
6135;SDS011;24008;42.664;23.372;2023-04-03T10:55:53;10.13;;;6.83;;
6135;SDS011;24008;42.664;23.372;2023-04-03T10:58:26;13.37;;;6.17;;
6135;SDS011;24008;42.664;23.372;2023-04-03T11:00:59;10.97;;;5.43;;
6135;SDS011;24008;42.664;23.372;2023-04-03T11:03:34;7.67;;;4.90;;
6135;SDS011;24008;42.664;23.372;2023-04-03T11:06:06;5.63;;;4.53;;
6135;SDS011;24008;42.664;23.372;2023-04-03T11:08:37;6.10;;;5.20;;
6135;SDS011;24008;42.664;23.372;2023-04-03T11:11:10;8.67;;;5.10;;
6135;SDS011;24008;42.664;23.372;2023-04-03T11:13:40;5.80;;;4.30;;
6135;SDS011;24008;42.664;23.372;2023-04-03T11:16:13;7.30;;;4.10;;
6135;SDS011;24008;42.664;23.372;2023-04-03T11:18:47;7.47;;;4.50;;
6135;SDS011;24008;42.664;23.372;2023-04-03T11:21:19;7.00;;;4.17;;
6135;SDS011;24008;42.664;23.372;2023-04-03T11:23:48;5.83;;;4.73;;
6135;SDS011;24008;42.664;23.372;2023-04-03T11:26:18;7.93;;;5.37;;
6135;SDS011;24008;42.664;23.372;2023-04-03T11:28:47;7.77;;;5.10;;
6135;SDS011;24008;42.664;23.372;2023-04-03T11:31:33;7.00;;;4.90;;
6135;SDS011;24008;42.664;23.372;2023-04-03T11:34:13;6.80;;;5.37;;
6135;SDS011;24008;42.664;23.372;2023-04-03T11:36:53;6.73;;;5.60;;
6135;SDS011;24008;42.664;23.372;2023-04-03T11:39:23;6.40;;;5.30;;
6135;SDS011;24008;42.664;23.372;2023-04-03T11:41:53;6.90;;;4.80;;
6135;SDS011;24008;42.664;23.372;2023-04-03T11:44:29;7.37;;;5.53;;
6135;SDS011;24008;42.664;23.372;2023-04-03T11:47:00;7.63;;;5.13;;
6135;SDS011;24008;42.664;23.372;2023-04-03T11:55:42;6.33;;;5.10;;
6135;SDS011;24008;42.664;23.372;2023-04-03T11:58:25;7.07;;;5.40;;
6135;SDS011;24008;42.664;23.372;2023-04-03T12:00:55;6.43;;;5.00;;
6135;SDS011;24008;42.664;23.372;2023-04-03T12:12:33;7.10;;;5.13;;
6135;SDS011;24008;42.664;23.372;2023-04-03T12:15:19;8.30;;;4.50;;
6135;SDS011;24008;42.664;23.372;2023-04-03T12:17:49;5.53;;;4.33;;
6135;SDS011;24008;42.664;23.372;2023-04-03T12:23:27;7.23;;;5.10;;
6135;SDS011;24008;42.664;23.372;2023-04-03T12:26:00;6.10;;;4.73;;
6135;SDS011;24008;42.664;23.372;2023-04-03T12:28:38;5.97;;;4.30;;
6135;SDS011;24008;42.664;23.372;2023-04-03T12:31:06;9.30;;;6.50;;
6135;SDS011;24008;42.664;23.372;2023-04-03T12:33:38;7.07;;;5.73;;
6135;SDS011;24008;42.664;23.372;2023-04-03T12:36:28;8.63;;;6.33;;
6135;SDS011;24008;42.664;23.372;2023-04-03T12:39:15;8.50;;;6.67;;
6135;SDS011;24008;42.664;23.372;2023-04-03T12:41:53;10.80;;;6.07;;
6135;SDS011;24008;42.664;23.372;2023-04-03T12:44:40;10.00;;;7.43;;
6135;SDS011;24008;42.664;23.372;2023-04-03T12:47:25;9.00;;;6.17;;
6135;SDS011;24008;42.664;23.372;2023-04-03T12:49:58;11.77;;;8.57;;
6135;SDS011;24008;42.664;23.372;2023-04-03T12:52:32;12.83;;;9.77;;
6135;SDS011;24008;42.664;23.372;2023-04-03T12:55:07;11.23;;;9.30;;
6135;SDS011;24008;42.664;23.372;2023-04-03T12:57:40;12.27;;;8.90;;
6135;SDS011;24008;42.664;23.372;2023-04-03T13:00:28;12.17;;;9.30;;
6135;SDS011;24008;42.664;23.372;2023-04-03T13:02:59;12.87;;;9.77;;
6135;SDS011;24008;42.664;23.372;2023-04-03T13:05:29;10.60;;;8.90;;
6135;SDS011;24008;42.664;23.372;2023-04-03T13:07:58;12.77;;;10.27;;
6135;SDS011;24008;42.664;23.372;2023-04-03T13:10:29;15.23;;;11.53;;
6135;SDS011;24008;42.664;23.372;2023-04-03T13:12:57;13.57;;;10.87;;
6135;SDS011;24008;42.664;23.372;2023-04-03T13:15:40;14.00;;;10.97;;
6135;SDS011;24008;42.664;23.372;2023-04-03T13:20:57;14.73;;;10.97;;
6135;SDS011;24008;42.664;23.372;2023-04-03T13:23:27;14.20;;;11.40;;
6135;SDS011;24008;42.664;23.372;2023-04-03T13:25:56;14.83;;;11.30;;
6135;SDS011;24008;42.664;23.372;2023-04-03T13:28:27;16.47;;;12.63;;
6135;SDS011;24008;42.664;23.372;2023-04-03T13:30:56;17.33;;;11.70;;
6135;SDS011;24008;42.664;23.372;2023-04-03T13:33:27;15.30;;;11.67;;
6135;SDS011;24008;42.664;23.372;2023-04-03T13:35:57;17.80;;;12.30;;
6135;SDS011;24008;42.664;23.372;2023-04-03T13:38:43;16.43;;;12.23;;
6135;SDS011;24008;42.664;23.372;2023-04-03T13:44:26;16.10;;;12.20;;
6135;SDS011;24008;42.664;23.372;2023-04-03T13:46:56;15.47;;;12.47;;
6135;SDS011;24008;42.664;23.372;2023-04-03T13:49:29;16.97;;;11.27;;
6135;SDS011;24008;42.664;23.372;2023-04-03T13:51:58;16.33;;;12.27;;
6135;SDS011;24008;42.664;23.372;2023-04-03T13:54:29;14.70;;;11.13;;
6135;SDS011;24008;42.664;23.372;2023-04-03T13:57:00;15.23;;;11.73;;
6135;SDS011;24008;42.664;23.372;2023-04-03T13:59:28;15.97;;;11.57;;
6135;SDS011;24008;42.664;23.372;2023-04-03T14:02:09;12.57;;;10.07;;
6135;SDS011;24008;42.664;23.372;2023-04-03T14:04:46;12.57;;;11.00;;
6135;SDS011;24008;42.664;23.372;2023-04-03T14:07:23;11.03;;;9.90;;
6135;SDS011;24008;42.664;23.372;2023-04-03T14:09:50;12.30;;;10.07;;
6135;SDS011;24008;42.664;23.372;2023-04-03T14:12:20;12.80;;;10.97;;
6135;SDS011;24008;42.664;23.372;2023-04-03T14:14:54;14.43;;;11.30;;
6135;SDS011;24008;42.664;23.372;2023-04-03T14:17:22;15.43;;;12.00;;
6135;SDS011;24008;42.664;23.372;2023-04-03T14:19:50;14.83;;;11.80;;
6135;SDS011;24008;42.664;23.372;2023-04-03T14:22:20;16.27;;;11.73;;
6135;SDS011;24008;42.664;23.372;2023-04-03T14:24:48;15.70;;;12.70;;
6135;SDS011;24008;42.664;23.372;2023-04-03T14:27:17;11.60;;;10.40;;
6135;SDS011;24008;42.664;23.372;2023-04-03T14:29:48;13.77;;;10.87;;
6135;SDS011;24008;42.664;23.372;2023-04-03T14:32:16;16.23;;;11.83;;
6135;SDS011;24008;42.664;23.372;2023-04-03T14:34:44;14.97;;;11.90;;
6135;SDS011;24008;42.664;23.372;2023-04-03T14:37:12;13.53;;;11.50;;
6135;SDS011;24008;42.664;23.372;2023-04-03T14:39:41;13.60;;;10.30;;
6135;SDS011;24008;42.664;23.372;2023-04-03T14:42:11;14.50;;;10.60;;
6135;SDS011;24008;42.664;23.372;2023-04-03T14:44:41;11.50;;;9.20;;
6135;SDS011;24008;42.664;23.372;2023-04-03T14:47:09;12.07;;;9.80;;
6135;SDS011;24008;42.664;23.372;2023-04-03T14:49:37;11.97;;;9.00;;
6135;SDS011;24008;42.664;23.372;2023-04-03T14:52:05;10.30;;;9.03;;
6135;SDS011;24008;42.664;23.372;2023-04-03T14:54:32;8.73;;;7.27;;
6135;SDS011;24008;42.664;23.372;2023-04-03T14:57:00;9.27;;;8.30;;
6135;SDS011;24008;42.664;23.372;2023-04-03T14:59:28;11.30;;;8.43;;
6135;SDS011;24008;42.664;23.372;2023-04-03T15:01:58;9.90;;;8.03;;
6135;SDS011;24008;42.664;23.372;2023-04-03T15:04:25;10.77;;;8.63;;
6135;SDS011;24008;42.664;23.372;2023-04-03T15:06:53;9.70;;;8.37;;
6135;SDS011;24008;42.664;23.372;2023-04-03T15:09:20;9.33;;;7.60;;
6135;SDS011;24008;42.664;23.372;2023-04-03T15:11:49;9.37;;;7.70;;
6135;SDS011;24008;42.664;23.372;2023-04-03T15:14:17;13.03;;;8.37;;